sensor_id;sensor_type;location;lat;lon;timestamp;P1;durP1;ratioP1;P2;durP2;ratioP2
3667;SDS011;24099;47.102;15.440;2022-10-16T00:00:49;6.85;;;4.25;;
3667;SDS011;24099;47.102;15.440;2022-10-16T00:03:16;7.93;;;4.95;;
3667;SDS011;24099;47.102;15.440;2022-10-16T00:05:45;9.60;;;5.05;;
3667;SDS011;24099;47.102;15.440;2022-10-16T00:08:12;6.82;;;4.20;;
3667;SDS011;24099;47.102;15.440;2022-10-16T00:10:40;7.88;;;4.60;;
3667;SDS011;24099;47.102;15.440;2022-10-16T00:13:07;8.40;;;4.65;;
3667;SDS011;24099;47.102;15.440;2022-10-16T00:15:35;5.30;;;3.47;;
3667;SDS011;24099;47.102;15.440;2022-10-16T00:18:04;10.60;;;4.78;;
3667;SDS011;24099;47.102;15.440;2022-10-16T00:20:33;10.38;;;5.82;;
3667;SDS011;24099;47.102;15.440;2022-10-16T00:23:03;10.88;;;5.65;;
3667;SDS011;24099;47.102;15.440;2022-10-16T00:25:31;8.65;;;4.90;;
3667;SDS011;24099;47.102;15.440;2022-10-16T00:27:59;9.50;;;5.03;;
3667;SDS011;24099;47.102;15.440;2022-10-16T00:30:26;10.50;;;5.78;;
3667;SDS011;24099;47.102;15.440;2022-10-16T00:32:57;12.70;;;6.53;;
3667;SDS011;24099;47.102;15.440;2022-10-16T00:35:24;10.02;;;4.68;;
3667;SDS011;24099;47.102;15.440;2022-10-16T00:37:52;6.78;;;3.85;;
3667;SDS011;24099;47.102;15.440;2022-10-16T00:40:21;10.57;;;5.00;;
3667;SDS011;24099;47.102;15.440;2022-10-16T00:42:48;8.45;;;4.05;;
3667;SDS011;24099;47.102;15.440;2022-10-16T00:45:16;11.50;;;6.35;;
3667;SDS011;24099;47.102;15.440;2022-10-16T00:47:43;7.82;;;4.53;;
3667;SDS011;24099;47.102;15.440;2022-10-16T00:50:16;11.07;;;5.70;;
3667;SDS011;24099;47.102;15.440;2022-10-16T00:52:53;8.13;;;3.92;;
3667;SDS011;24099;47.102;15.440;2022-10-16T00:55:22;8.57;;;4.20;;
3667;SDS011;24099;47.102;15.440;2022-10-16T00:57:51;8.98;;;5.45;;
3667;SDS011;24099;47.102;15.440;2022-10-16T01:00:21;8.23;;;4.32;;
3667;SDS011;24099;47.102;15.440;2022-10-16T01:02:52;9.18;;;4.45;;
3667;SDS011;24099;47.102;15.440;2022-10-16T01:05:22;7.38;;;4.97;;
3667;SDS011;24099;47.102;15.440;2022-10-16T01:07:56;8.68;;;4.55;;
3667;SDS011;24099;47.102;15.440;2022-10-16T01:10:37;12.43;;;5.53;;
3667;SDS011;24099;47.102;15.440;2022-10-16T01:13:08;7.07;;;4.32;;
3667;SDS011;24099;47.102;15.440;2022-10-16T01:15:41;6.00;;;4.40;;
3667;SDS011;24099;47.102;15.440;2022-10-16T01:18:14;10.10;;;5.35;;
3667;SDS011;24099;47.102;15.440;2022-10-16T01:20:50;7.30;;;4.55;;
3667;SDS011;24099;47.102;15.440;2022-10-16T01:23:27;5.70;;;3.85;;
3667;SDS011;24099;47.102;15.440;2022-10-16T01:26:14;6.55;;;4.38;;
3667;SDS011;24099;47.102;15.440;2022-10-16T01:28:59;8.13;;;4.07;;
3667;SDS011;24099;47.102;15.440;2022-10-16T01:31:35;7.95;;;4.25;;
3667;SDS011;24099;47.102;15.440;2022-10-16T01:34:08;9.73;;;4.75;;
3667;SDS011;24099;47.102;15.440;2022-10-16T01:36:44;7.68;;;4.47;;
3667;SDS011;24099;47.102;15.440;2022-10-16T01:39:16;8.32;;;4.03;;
3667;SDS011;24099;47.102;15.440;2022-10-16T01:41:52;9.77;;;4.85;;
3667;SDS011;24099;47.102;15.440;2022-10-16T01:44:29;7.93;;;4.10;;
3667;SDS011;24099;47.102;15.440;2022-10-16T01:47:01;6.10;;;4.20;;
3667;SDS011;24099;47.102;15.440;2022-10-16T01:49:31;9.25;;;4.40;;
3667;SDS011;24099;47.102;15.440;2022-10-16T01:52:03;8.02;;;4.63;;
3667;SDS011;24099;47.102;15.440;2022-10-16T01:54:36;7.40;;;4.30;;
3667;SDS011;24099;47.102;15.440;2022-10-16T01:57:07;6.22;;;4.28;;
3667;SDS011;24099;47.102;15.440;2022-10-16T01:59:40;5.20;;;3.75;;
3667;SDS011;24099;47.102;15.440;2022-10-16T02:02:12;4.95;;;3.47;;
3667;SDS011;24099;47.102;15.440;2022-10-16T02:04:45;6.60;;;4.65;;
3667;SDS011;24099;47.102;15.440;2022-10-16T02:07:18;10.68;;;4.60;;
3667;SDS011;24099;47.102;15.440;2022-10-16T02:09:45;11.88;;;6.18;;
3667;SDS011;24099;47.102;15.440;2022-10-16T02:12:13;8.02;;;4.90;;
3667;SDS011;24099;47.102;15.440;2022-10-16T02:14:49;9.40;;;4.43;;
3667;SDS011;24099;47.102;15.440;2022-10-16T02:17:18;8.07;;;4.22;;
3667;SDS011;24099;47.102;15.440;2022-10-16T02:19:46;7.78;;;3.70;;
3667;SDS011;24099;47.102;15.440;2022-10-16T02:22:18;8.85;;;3.15;;
3667;SDS011;24099;47.102;15.440;2022-10-16T02:24:54;6.30;;;3.55;;
3667;SDS011;24099;47.102;15.440;2022-10-16T02:27:26;6.53;;;4.53;;
3667;SDS011;24099;47.102;15.440;2022-10-16T02:30:04;3.38;;;2.85;;
3667;SDS011;24099;47.102;15.440;2022-10-16T02:32:36;7.10;;;3.88;;
3667;SDS011;24099;47.102;15.440;2022-10-16T02:35:08;7.72;;;3.83;;
3667;SDS011;24099;47.102;15.440;2022-10-16T02:37:36;7.40;;;4.38;;
3667;SDS011;24099;47.102;15.440;2022-10-16T02:40:07;7.03;;;3.85;;
3667;SDS011;24099;47.102;15.440;2022-10-16T02:42:37;8.50;;;4.40;;
3667;SDS011;24099;47.102;15.440;2022-10-16T02:45:09;11.73;;;3.70;;
3667;SDS011;24099;47.102;15.440;2022-10-16T02:47:37;8.73;;;3.67;;
3667;SDS011;24099;47.102;15.440;2022-10-16T02:50:05;4.78;;;3.03;;
3667;SDS011;24099;47.102;15.440;2022-10-16T02:52:36;5.18;;;3.58;;
3667;SDS011;24099;47.102;15.440;2022-10-16T02:55:03;7.20;;;4.85;;
3667;SDS011;24099;47.102;15.440;2022-10-16T02:57:32;7.82;;;4.30;;
3667;SDS011;24099;47.102;15.440;2022-10-16T02:59:59;9.05;;;4.38;;
3667;SDS011;24099;47.102;15.440;2022-10-16T03:02:28;5.80;;;3.53;;
3667;SDS011;24099;47.102;15.440;2022-10-16T03:04:55;5.65;;;3.72;;
3667;SDS011;24099;47.102;15.440;2022-10-16T03:07:23;4.65;;;3.38;;
3667;SDS011;24099;47.102;15.440;2022-10-16T03:09:50;7.65;;;4.13;;
3667;SDS011;24099;47.102;15.440;2022-10-16T03:12:19;9.93;;;4.88;;
3667;SDS011;24099;47.102;15.440;2022-10-16T03:14:46;8.18;;;4.43;;
3667;SDS011;24099;47.102;15.440;2022-10-16T03:17:14;5.78;;;3.33;;
3667;SDS011;24099;47.102;15.440;2022-10-16T03:19:43;5.95;;;3.65;;
3667;SDS011;24099;47.102;15.440;2022-10-16T03:22:10;3.65;;;3.20;;
3667;SDS011;24099;47.102;15.440;2022-10-16T03:24:38;4.82;;;3.08;;
3667;SDS011;24099;47.102;15.440;2022-10-16T03:27:05;6.35;;;3.35;;
3667;SDS011;24099;47.102;15.440;2022-10-16T03:29:32;6.43;;;3.03;;
3667;SDS011;24099;47.102;15.440;2022-10-16T03:32:00;6.15;;;3.80;;
3667;SDS011;24099;47.102;15.440;2022-10-16T03:34:28;12.80;;;4.45;;
3667;SDS011;24099;47.102;15.440;2022-10-16T03:36:57;4.07;;;2.63;;
3667;SDS011;24099;47.102;15.440;2022-10-16T03:39:25;5.35;;;3.90;;
3667;SDS011;24099;47.102;15.440;2022-10-16T03:41:53;7.25;;;3.60;;
3667;SDS011;24099;47.102;15.440;2022-10-16T03:44:20;6.95;;;4.35;;
3667;SDS011;24099;47.102;15.440;2022-10-16T03:46:48;5.90;;;2.95;;
3667;SDS011;24099;47.102;15.440;2022-10-16T03:49:15;8.73;;;4.28;;
3667;SDS011;24099;47.102;15.440;2022-10-16T03:51:43;3.35;;;2.42;;
3667;SDS011;24099;47.102;15.440;2022-10-16T03:54:12;5.93;;;3.55;;
3667;SDS011;24099;47.102;15.440;2022-10-16T03:56:39;4.53;;;3.00;;
3667;SDS011;24099;47.102;15.440;2022-10-16T03:59:06;7.00;;;3.30;;
3667;SDS011;24099;47.102;15.440;2022-10-16T04:01:34;5.82;;;3.70;;
3667;SDS011;24099;47.102;15.440;2022-10-16T04:04:02;6.50;;;3.97;;
3667;SDS011;24099;47.102;15.440;2022-10-16T04:06:29;12.45;;;3.70;;
3667;SDS011;24099;47.102;15.440;2022-10-16T04:08:57;4.30;;;2.88;;
3667;SDS011;24099;47.102;15.440;2022-10-16T04:11:25;9.90;;;4.15;;
3667;SDS011;24099;47.102;15.440;2022-10-16T04:13:54;3.78;;;2.60;;
3667;SDS011;24099;47.102;15.440;2022-10-16T04:16:21;6.85;;;2.72;;
3667;SDS011;24099;47.102;15.440;2022-10-16T04:18:49;6.47;;;3.53;;
3667;SDS011;24099;47.102;15.440;2022-10-16T04:21:16;5.57;;;2.88;;
3667;SDS011;24099;47.102;15.440;2022-10-16T04:23:44;5.47;;;3.60;;
3667;SDS011;24099;47.102;15.440;2022-10-16T04:26:11;9.20;;;3.20;;
3667;SDS011;24099;47.102;15.440;2022-10-16T04:28:40;5.78;;;3.40;;
3667;SDS011;24099;47.102;15.440;2022-10-16T04:31:08;5.55;;;3.25;;
3667;SDS011;24099;47.102;15.440;2022-10-16T04:33:35;13.27;;;3.60;;
3667;SDS011;24099;47.102;15.440;2022-10-16T04:36:03;8.00;;;3.22;;
3667;SDS011;24099;47.102;15.440;2022-10-16T04:38:31;7.20;;;4.55;;
3667;SDS011;24099;47.102;15.440;2022-10-16T04:40:58;6.15;;;3.53;;
3667;SDS011;24099;47.102;15.440;2022-10-16T04:43:26;9.35;;;4.25;;
3667;SDS011;24099;47.102;15.440;2022-10-16T04:45:55;6.35;;;3.70;;
3667;SDS011;24099;47.102;15.440;2022-10-16T04:48:22;4.43;;;2.88;;
3667;SDS011;24099;47.102;15.440;2022-10-16T04:50:52;6.13;;;3.38;;
3667;SDS011;24099;47.102;15.440;2022-10-16T04:53:20;7.53;;;3.70;;
3667;SDS011;24099;47.102;15.440;2022-10-16T04:55:48;4.38;;;3.28;;
3667;SDS011;24099;47.102;15.440;2022-10-16T04:58:16;3.88;;;2.60;;
3667;SDS011;24099;47.102;15.440;2022-10-16T05:00:44;10.07;;;3.55;;
3667;SDS011;24099;47.102;15.440;2022-10-16T05:03:13;5.82;;;4.20;;
3667;SDS011;24099;47.102;15.440;2022-10-16T05:05:42;4.50;;;3.03;;
3667;SDS011;24099;47.102;15.440;2022-10-16T05:08:10;5.18;;;3.30;;
3667;SDS011;24099;47.102;15.440;2022-10-16T05:10:38;5.43;;;3.53;;
3667;SDS011;24099;47.102;15.440;2022-10-16T05:13:09;6.70;;;3.72;;
3667;SDS011;24099;47.102;15.440;2022-10-16T05:15:38;5.00;;;3.25;;
3667;SDS011;24099;47.102;15.440;2022-10-16T05:18:07;5.00;;;3.28;;
3667;SDS011;24099;47.102;15.440;2022-10-16T05:20:37;5.88;;;3.33;;
3667;SDS011;24099;47.102;15.440;2022-10-16T05:23:05;4.30;;;3.40;;
3667;SDS011;24099;47.102;15.440;2022-10-16T05:25:32;4.30;;;2.75;;
3667;SDS011;24099;47.102;15.440;2022-10-16T05:28:00;4.90;;;2.70;;
3667;SDS011;24099;47.102;15.440;2022-10-16T05:30:28;5.20;;;3.08;;
3667;SDS011;24099;47.102;15.440;2022-10-16T05:32:55;8.05;;;3.88;;
3667;SDS011;24099;47.102;15.440;2022-10-16T05:35:23;5.20;;;3.08;;
3667;SDS011;24099;47.102;15.440;2022-10-16T05:37:52;5.05;;;2.88;;
3667;SDS011;24099;47.102;15.440;2022-10-16T05:40:19;7.65;;;3.78;;
3667;SDS011;24099;47.102;15.440;2022-10-16T05:42:47;4.65;;;3.25;;
3667;SDS011;24099;47.102;15.440;2022-10-16T05:45:15;6.03;;;3.05;;
3667;SDS011;24099;47.102;15.440;2022-10-16T05:47:43;5.13;;;3.25;;
3667;SDS011;24099;47.102;15.440;2022-10-16T05:50:10;6.90;;;2.85;;
3667;SDS011;24099;47.102;15.440;2022-10-16T05:52:39;3.45;;;2.47;;
3667;SDS011;24099;47.102;15.440;2022-10-16T05:55:08;4.93;;;3.00;;
3667;SDS011;24099;47.102;15.440;2022-10-16T05:57:35;8.57;;;4.22;;
3667;SDS011;24099;47.102;15.440;2022-10-16T06:00:04;10.13;;;4.20;;
3667;SDS011;24099;47.102;15.440;2022-10-16T06:02:43;3.17;;;2.70;;
3667;SDS011;24099;47.102;15.440;2022-10-16T06:05:11;7.40;;;4.15;;
3667;SDS011;24099;47.102;15.440;2022-10-16T06:07:38;6.05;;;3.22;;
3667;SDS011;24099;47.102;15.440;2022-10-16T06:10:06;7.68;;;2.80;;
3667;SDS011;24099;47.102;15.440;2022-10-16T06:12:35;6.88;;;3.80;;
3667;SDS011;24099;47.102;15.440;2022-10-16T06:15:04;5.85;;;3.38;;
3667;SDS011;24099;47.102;15.440;2022-10-16T06:17:33;6.22;;;3.45;;
3667;SDS011;24099;47.102;15.440;2022-10-16T06:20:02;7.65;;;4.30;;
3667;SDS011;24099;47.102;15.440;2022-10-16T06:22:31;5.72;;;3.00;;
3667;SDS011;24099;47.102;15.440;2022-10-16T06:24:58;6.05;;;2.70;;
3667;SDS011;24099;47.102;15.440;2022-10-16T06:27:28;5.28;;;3.47;;
3667;SDS011;24099;47.102;15.440;2022-10-16T06:29:56;8.40;;;4.22;;
3667;SDS011;24099;47.102;15.440;2022-10-16T06:32:23;6.18;;;3.95;;
3667;SDS011;24099;47.102;15.440;2022-10-16T06:34:52;7.60;;;4.43;;
3667;SDS011;24099;47.102;15.440;2022-10-16T06:37:20;5.53;;;3.05;;
3667;SDS011;24099;47.102;15.440;2022-10-16T06:39:48;7.47;;;3.58;;
3667;SDS011;24099;47.102;15.440;2022-10-16T06:42:17;5.97;;;2.80;;
3667;SDS011;24099;47.102;15.440;2022-10-16T06:44:46;5.25;;;3.53;;
3667;SDS011;24099;47.102;15.440;2022-10-16T06:47:14;5.70;;;3.53;;
3667;SDS011;24099;47.102;15.440;2022-10-16T06:49:41;5.35;;;3.65;;
3667;SDS011;24099;47.102;15.440;2022-10-16T06:52:09;3.08;;;2.50;;
3667;SDS011;24099;47.102;15.440;2022-10-16T06:54:37;5.18;;;3.10;;
3667;SDS011;24099;47.102;15.440;2022-10-16T06:57:05;10.48;;;3.80;;
3667;SDS011;24099;47.102;15.440;2022-10-16T06:59:33;8.07;;;3.53;;
3667;SDS011;24099;47.102;15.440;2022-10-16T07:02:02;5.93;;;3.17;;
3667;SDS011;24099;47.102;15.440;2022-10-16T07:04:31;4.55;;;3.00;;
3667;SDS011;24099;47.102;15.440;2022-10-16T07:06:59;3.42;;;2.42;;
3667;SDS011;24099;47.102;15.440;2022-10-16T07:09:27;17.17;;;4.18;;
3667;SDS011;24099;47.102;15.440;2022-10-16T07:11:57;4.43;;;3.00;;
3667;SDS011;24099;47.102;15.440;2022-10-16T07:14:24;5.22;;;2.85;;
3667;SDS011;24099;47.102;15.440;2022-10-16T07:16:52;3.15;;;2.55;;
3667;SDS011;24099;47.102;15.440;2022-10-16T07:19:21;3.28;;;2.55;;
3667;SDS011;24099;47.102;15.440;2022-10-16T07:21:51;8.63;;;2.47;;
3667;SDS011;24099;47.102;15.440;2022-10-16T07:24:19;6.97;;;3.42;;
3667;SDS011;24099;47.102;15.440;2022-10-16T07:26:48;4.97;;;3.28;;
3667;SDS011;24099;47.102;15.440;2022-10-16T07:29:16;4.50;;;2.83;;
3667;SDS011;24099;47.102;15.440;2022-10-16T07:31:46;5.35;;;2.90;;
3667;SDS011;24099;47.102;15.440;2022-10-16T07:34:16;4.53;;;3.15;;
3667;SDS011;24099;47.102;15.440;2022-10-16T07:36:48;6.65;;;3.30;;
3667;SDS011;24099;47.102;15.440;2022-10-16T07:39:16;4.50;;;3.17;;
3667;SDS011;24099;47.102;15.440;2022-10-16T07:41:45;5.78;;;3.25;;
3667;SDS011;24099;47.102;15.440;2022-10-16T07:44:15;4.30;;;3.35;;
3667;SDS011;24099;47.102;15.440;2022-10-16T07:46:42;8.38;;;3.95;;
3667;SDS011;24099;47.102;15.440;2022-10-16T07:49:10;6.53;;;4.05;;
3667;SDS011;24099;47.102;15.440;2022-10-16T07:51:38;8.35;;;3.53;;
3667;SDS011;24099;47.102;15.440;2022-10-16T07:54:08;9.70;;;3.53;;
3667;SDS011;24099;47.102;15.440;2022-10-16T07:56:36;8.02;;;4.22;;
3667;SDS011;24099;47.102;15.440;2022-10-16T07:59:06;6.25;;;3.63;;
3667;SDS011;24099;47.102;15.440;2022-10-16T08:01:33;10.38;;;3.33;;
3667;SDS011;24099;47.102;15.440;2022-10-16T08:04:01;8.30;;;4.38;;
3667;SDS011;24099;47.102;15.440;2022-10-16T08:06:28;8.43;;;3.28;;
3667;SDS011;24099;47.102;15.440;2022-10-16T08:09:01;5.88;;;3.92;;
3667;SDS011;24099;47.102;15.440;2022-10-16T08:11:30;6.00;;;3.40;;
3667;SDS011;24099;47.102;15.440;2022-10-16T08:13:59;7.13;;;3.80;;
3667;SDS011;24099;47.102;15.440;2022-10-16T08:16:27;8.75;;;4.13;;
3667;SDS011;24099;47.102;15.440;2022-10-16T08:18:56;9.55;;;4.13;;
3667;SDS011;24099;47.102;15.440;2022-10-16T08:21:23;7.13;;;4.18;;
3667;SDS011;24099;47.102;15.440;2022-10-16T08:23:52;11.60;;;4.13;;
3667;SDS011;24099;47.102;15.440;2022-10-16T08:26:21;6.80;;;3.45;;
3667;SDS011;24099;47.102;15.440;2022-10-16T08:28:50;7.70;;;4.07;;
3667;SDS011;24099;47.102;15.440;2022-10-16T08:31:19;8.07;;;3.83;;
3667;SDS011;24099;47.102;15.440;2022-10-16T08:33:48;10.13;;;4.18;;
3667;SDS011;24099;47.102;15.440;2022-10-16T08:36:17;6.65;;;3.65;;
3667;SDS011;24099;47.102;15.440;2022-10-16T08:38:47;5.93;;;3.72;;
3667;SDS011;24099;47.102;15.440;2022-10-16T08:41:33;5.10;;;3.17;;
3667;SDS011;24099;47.102;15.440;2022-10-16T08:44:33;7.57;;;3.85;;
3667;SDS011;24099;47.102;15.440;2022-10-16T08:47:16;12.95;;;3.78;;
3667;SDS011;24099;47.102;15.440;2022-10-16T08:49:51;5.93;;;2.95;;
3667;SDS011;24099;47.102;15.440;2022-10-16T08:52:23;3.70;;;2.90;;
3667;SDS011;24099;47.102;15.440;2022-10-16T08:54:56;6.60;;;3.65;;
3667;SDS011;24099;47.102;15.440;2022-10-16T08:57:24;6.57;;;4.13;;
3667;SDS011;24099;47.102;15.440;2022-10-16T08:59:54;8.35;;;4.13;;
3667;SDS011;24099;47.102;15.440;2022-10-16T09:02:29;6.57;;;3.30;;
3667;SDS011;24099;47.102;15.440;2022-10-16T09:05:16;7.28;;;4.40;;
3667;SDS011;24099;47.102;15.440;2022-10-16T09:07:58;8.90;;;3.42;;
3667;SDS011;24099;47.102;15.440;2022-10-16T09:10:36;10.52;;;4.50;;
3667;SDS011;24099;47.102;15.440;2022-10-16T09:13:15;8.18;;;4.13;;
3667;SDS011;24099;47.102;15.440;2022-10-16T09:15:52;8.25;;;4.90;;
3667;SDS011;24099;47.102;15.440;2022-10-16T09:18:27;6.40;;;3.53;;
3667;SDS011;24099;47.102;15.440;2022-10-16T09:21:06;13.63;;;4.38;;
3667;SDS011;24099;47.102;15.440;2022-10-16T09:23:41;10.05;;;4.97;;
3667;SDS011;24099;47.102;15.440;2022-10-16T09:26:11;8.45;;;4.70;;
3667;SDS011;24099;47.102;15.440;2022-10-16T09:28:41;6.88;;;4.00;;
3667;SDS011;24099;47.102;15.440;2022-10-16T09:31:13;11.00;;;6.10;;
3667;SDS011;24099;47.102;15.440;2022-10-16T09:33:45;8.32;;;4.85;;
3667;SDS011;24099;47.102;15.440;2022-10-16T09:36:17;10.20;;;5.13;;
3667;SDS011;24099;47.102;15.440;2022-10-16T09:38:47;5.63;;;3.78;;
3667;SDS011;24099;47.102;15.440;2022-10-16T09:41:16;9.18;;;4.32;;
3667;SDS011;24099;47.102;15.440;2022-10-16T09:43:47;5.75;;;3.55;;
3667;SDS011;24099;47.102;15.440;2022-10-16T09:46:24;5.68;;;3.67;;
3667;SDS011;24099;47.102;15.440;2022-10-16T09:48:54;6.35;;;3.53;;
3667;SDS011;24099;47.102;15.440;2022-10-16T09:51:24;6.03;;;3.20;;
3667;SDS011;24099;47.102;15.440;2022-10-16T09:53:54;4.60;;;3.22;;
3667;SDS011;24099;47.102;15.440;2022-10-16T09:56:24;4.50;;;3.42;;
3667;SDS011;24099;47.102;15.440;2022-10-16T09:58:54;4.05;;;3.00;;
3667;SDS011;24099;47.102;15.440;2022-10-16T10:01:26;3.80;;;2.70;;
3667;SDS011;24099;47.102;15.440;2022-10-16T10:03:58;3.08;;;2.38;;
3667;SDS011;24099;47.102;15.440;2022-10-16T10:06:28;3.55;;;2.15;;
3667;SDS011;24099;47.102;15.440;2022-10-16T10:08:59;3.95;;;2.60;;
3667;SDS011;24099;47.102;15.440;2022-10-16T10:11:46;4.45;;;2.70;;
3667;SDS011;24099;47.102;15.440;2022-10-16T10:14:17;2.72;;;2.15;;
3667;SDS011;24099;47.102;15.440;2022-10-16T10:17:06;3.15;;;2.45;;
3667;SDS011;24099;47.102;15.440;2022-10-16T10:19:40;2.20;;;2.00;;
3667;SDS011;24099;47.102;15.440;2022-10-16T10:22:25;5.18;;;2.30;;
3667;SDS011;24099;47.102;15.440;2022-10-16T10:24:57;3.47;;;2.63;;
3667;SDS011;24099;47.102;15.440;2022-10-16T10:27:36;3.42;;;2.63;;
3667;SDS011;24099;47.102;15.440;2022-10-16T10:30:15;3.42;;;2.63;;
3667;SDS011;24099;47.102;15.440;2022-10-16T10:32:54;4.75;;;2.95;;
3667;SDS011;24099;47.102;15.440;2022-10-16T10:35:38;3.83;;;2.63;;
3667;SDS011;24099;47.102;15.440;2022-10-16T10:38:16;3.13;;;2.35;;
3667;SDS011;24099;47.102;15.440;2022-10-16T10:40:54;3.80;;;2.90;;
3667;SDS011;24099;47.102;15.440;2022-10-16T10:43:31;3.97;;;2.45;;
3667;SDS011;24099;47.102;15.440;2022-10-16T10:46:13;5.20;;;2.97;;
3667;SDS011;24099;47.102;15.440;2022-10-16T10:48:54;3.90;;;2.60;;
3667;SDS011;24099;47.102;15.440;2022-10-16T10:51:39;5.63;;;2.95;;
3667;SDS011;24099;47.102;15.440;2022-10-16T10:56:50;4.13;;;2.63;;
3667;SDS011;24099;47.102;15.440;2022-10-16T10:59:31;4.32;;;2.50;;
3667;SDS011;24099;47.102;15.440;2022-10-16T11:02:22;7.30;;;3.92;;
3667;SDS011;24099;47.102;15.440;2022-10-16T11:05:05;8.88;;;3.92;;
3667;SDS011;24099;47.102;15.440;2022-10-16T11:07:59;15.60;;;3.80;;
3667;SDS011;24099;47.102;15.440;2022-10-16T11:10:34;6.40;;;3.65;;
3667;SDS011;24099;47.102;15.440;2022-10-16T11:13:09;5.47;;;2.88;;
3667;SDS011;24099;47.102;15.440;2022-10-16T11:15:43;5.18;;;2.97;;
3667;SDS011;24099;47.102;15.440;2022-10-16T11:18:19;5.78;;;3.53;;
3667;SDS011;24099;47.102;15.440;2022-10-16T11:20:53;7.25;;;3.75;;
3667;SDS011;24099;47.102;15.440;2022-10-16T11:23:25;5.90;;;3.65;;
3667;SDS011;24099;47.102;15.440;2022-10-16T11:25:59;7.00;;;3.83;;
3667;SDS011;24099;47.102;15.440;2022-10-16T11:28:32;8.38;;;3.97;;
3667;SDS011;24099;47.102;15.440;2022-10-16T11:31:05;8.02;;;3.97;;
3667;SDS011;24099;47.102;15.440;2022-10-16T11:33:39;9.43;;;3.38;;
3667;SDS011;24099;47.102;15.440;2022-10-16T11:36:14;7.20;;;3.40;;
3667;SDS011;24099;47.102;15.440;2022-10-16T11:38:49;7.55;;;3.08;;
3667;SDS011;24099;47.102;15.440;2022-10-16T11:41:24;5.47;;;2.95;;
3667;SDS011;24099;47.102;15.440;2022-10-16T11:44:06;4.53;;;2.90;;
3667;SDS011;24099;47.102;15.440;2022-10-16T11:46:46;4.50;;;2.65;;
3667;SDS011;24099;47.102;15.440;2022-10-16T11:49:19;4.07;;;2.63;;
3667;SDS011;24099;47.102;15.440;2022-10-16T11:51:54;5.35;;;3.03;;
3667;SDS011;24099;47.102;15.440;2022-10-16T11:54:32;5.93;;;3.30;;
3667;SDS011;24099;47.102;15.440;2022-10-16T11:57:08;7.90;;;3.97;;
3667;SDS011;24099;47.102;15.440;2022-10-16T11:59:42;4.82;;;3.13;;
3667;SDS011;24099;47.102;15.440;2022-10-16T12:02:26;5.07;;;2.80;;
3667;SDS011;24099;47.102;15.440;2022-10-16T12:05:03;4.45;;;3.10;;
3667;SDS011;24099;47.102;15.440;2022-10-16T12:07:44;5.00;;;2.92;;
3667;SDS011;24099;47.102;15.440;2022-10-16T12:10:19;4.47;;;3.00;;
3667;SDS011;24099;47.102;15.440;2022-10-16T12:12:49;6.38;;;3.22;;
3667;SDS011;24099;47.102;15.440;2022-10-16T12:15:22;4.03;;;2.85;;
3667;SDS011;24099;47.102;15.440;2022-10-16T12:17:52;5.20;;;3.17;;
3667;SDS011;24099;47.102;15.440;2022-10-16T12:20:25;5.22;;;3.17;;
3667;SDS011;24099;47.102;15.440;2022-10-16T12:22:57;8.13;;;3.17;;
3667;SDS011;24099;47.102;15.440;2022-10-16T12:25:27;5.95;;;3.15;;
3667;SDS011;24099;47.102;15.440;2022-10-16T12:27:57;6.43;;;3.55;;
3667;SDS011;24099;47.102;15.440;2022-10-16T12:30:31;5.07;;;2.58;;
3667;SDS011;24099;47.102;15.440;2022-10-16T12:33:01;4.85;;;2.88;;
3667;SDS011;24099;47.102;15.440;2022-10-16T12:35:32;6.32;;;3.47;;
3667;SDS011;24099;47.102;15.440;2022-10-16T12:38:14;3.70;;;2.35;;
3667;SDS011;24099;47.102;15.440;2022-10-16T12:40:45;3.35;;;2.05;;
3667;SDS011;24099;47.102;15.440;2022-10-16T12:43:34;4.07;;;2.63;;
3667;SDS011;24099;47.102;15.440;2022-10-16T12:46:18;4.60;;;2.70;;
3667;SDS011;24099;47.102;15.440;2022-10-16T12:48:49;4.70;;;2.40;;
3667;SDS011;24099;47.102;15.440;2022-10-16T12:51:22;4.25;;;2.53;;
3667;SDS011;24099;47.102;15.440;2022-10-16T12:53:59;4.20;;;2.45;;
3667;SDS011;24099;47.102;15.440;2022-10-16T12:56:31;3.53;;;2.17;;
3667;SDS011;24099;47.102;15.440;2022-10-16T12:59:09;3.50;;;2.35;;
3667;SDS011;24099;47.102;15.440;2022-10-16T13:01:54;2.95;;;2.10;;
3667;SDS011;24099;47.102;15.440;2022-10-16T13:04:41;3.67;;;2.58;;
3667;SDS011;24099;47.102;15.440;2022-10-16T13:10:06;3.47;;;2.22;;
3667;SDS011;24099;47.102;15.440;2022-10-16T13:12:51;4.80;;;2.50;;
3667;SDS011;24099;47.102;15.440;2022-10-16T13:15:40;5.97;;;3.13;;
3667;SDS011;24099;47.102;15.440;2022-10-16T13:18:21;4.90;;;2.67;;
3667;SDS011;24099;47.102;15.440;2022-10-16T13:20:59;2.85;;;2.17;;
3667;SDS011;24099;47.102;15.440;2022-10-16T13:23:36;3.22;;;2.40;;
3667;SDS011;24099;47.102;15.440;2022-10-16T13:26:15;4.93;;;2.50;;
3667;SDS011;24099;47.102;15.440;2022-10-16T13:28:49;4.28;;;2.45;;
3667;SDS011;24099;47.102;15.440;2022-10-16T13:31:18;4.35;;;2.40;;
3667;SDS011;24099;47.102;15.440;2022-10-16T13:33:49;4.10;;;2.65;;
3667;SDS011;24099;47.102;15.440;2022-10-16T13:36:21;5.13;;;2.58;;
3667;SDS011;24099;47.102;15.440;2022-10-16T13:38:59;3.95;;;2.55;;
3667;SDS011;24099;47.102;15.440;2022-10-16T13:41:35;3.15;;;2.15;;
3667;SDS011;24099;47.102;15.440;2022-10-16T13:44:03;2.55;;;2.03;;
3667;SDS011;24099;47.102;15.440;2022-10-16T13:46:31;5.10;;;2.95;;
3667;SDS011;24099;47.102;15.440;2022-10-16T13:49:00;4.10;;;2.47;;
3667;SDS011;24099;47.102;15.440;2022-10-16T13:51:29;3.42;;;2.22;;
3667;SDS011;24099;47.102;15.440;2022-10-16T13:53:58;4.70;;;3.05;;
3667;SDS011;24099;47.102;15.440;2022-10-16T13:56:27;2.95;;;2.30;;
3667;SDS011;24099;47.102;15.440;2022-10-16T13:59:02;2.90;;;2.10;;
3667;SDS011;24099;47.102;15.440;2022-10-16T14:01:31;7.68;;;2.10;;
3667;SDS011;24099;47.102;15.440;2022-10-16T14:04:02;4.43;;;2.45;;
3667;SDS011;24099;47.102;15.440;2022-10-16T14:06:31;4.25;;;2.75;;
3667;SDS011;24099;47.102;15.440;2022-10-16T14:09:00;3.78;;;2.75;;
3667;SDS011;24099;47.102;15.440;2022-10-16T14:11:32;3.40;;;2.28;;
3667;SDS011;24099;47.102;15.440;2022-10-16T14:14:04;4.53;;;2.47;;
3667;SDS011;24099;47.102;15.440;2022-10-16T14:16:40;4.47;;;2.72;;
3667;SDS011;24099;47.102;15.440;2022-10-16T14:19:13;2.95;;;2.10;;
3667;SDS011;24099;47.102;15.440;2022-10-16T14:21:45;3.45;;;2.28;;
3667;SDS011;24099;47.102;15.440;2022-10-16T14:24:12;3.53;;;2.75;;
3667;SDS011;24099;47.102;15.440;2022-10-16T14:26:49;4.33;;;2.07;;
3667;SDS011;24099;47.102;15.440;2022-10-16T14:29:21;3.42;;;2.50;;
3667;SDS011;24099;47.102;15.440;2022-10-16T14:31:54;3.97;;;2.65;;
3667;SDS011;24099;47.102;15.440;2022-10-16T14:34:26;2.33;;;1.85;;
3667;SDS011;24099;47.102;15.440;2022-10-16T14:36:58;3.50;;;2.25;;
3667;SDS011;24099;47.102;15.440;2022-10-16T14:39:32;2.75;;;2.15;;
3667;SDS011;24099;47.102;15.440;2022-10-16T14:42:00;2.53;;;2.00;;
3667;SDS011;24099;47.102;15.440;2022-10-16T14:44:31;4.35;;;2.20;;
3667;SDS011;24099;47.102;15.440;2022-10-16T14:47:06;3.40;;;2.30;;
3667;SDS011;24099;47.102;15.440;2022-10-16T14:49:36;2.28;;;2.03;;
3667;SDS011;24099;47.102;15.440;2022-10-16T14:52:05;3.22;;;2.15;;
3667;SDS011;24099;47.102;15.440;2022-10-16T14:54:37;2.88;;;1.80;;
3667;SDS011;24099;47.102;15.440;2022-10-16T14:57:04;2.78;;;2.17;;
3667;SDS011;24099;47.102;15.440;2022-10-16T14:59:43;3.40;;;1.90;;
3667;SDS011;24099;47.102;15.440;2022-10-16T15:02:16;3.70;;;1.88;;
3667;SDS011;24099;47.102;15.440;2022-10-16T15:04:49;3.43;;;2.43;;
3667;SDS011;24099;47.102;15.440;2022-10-16T15:07:17;2.00;;;1.80;;
3667;SDS011;24099;47.102;15.440;2022-10-16T15:09:44;3.13;;;2.55;;
3667;SDS011;24099;47.102;15.440;2022-10-16T15:12:12;2.58;;;1.95;;
3667;SDS011;24099;47.102;15.440;2022-10-16T15:14:40;3.45;;;1.85;;
3667;SDS011;24099;47.102;15.440;2022-10-16T15:17:09;2.90;;;1.70;;